sensor_id;sensor_type;location;lat;lon;timestamp;P1;durP1;ratioP1;P2;durP2;ratioP2
59302;SDS011;45074;52.764;6.896;2022-11-23T00:01:57;18.30;;;13.13;;
59302;SDS011;45074;52.764;6.896;2022-11-23T00:04:23;20.38;;;13.32;;
59302;SDS011;45074;52.764;6.896;2022-11-23T00:06:49;18.95;;;12.95;;
59302;SDS011;45074;52.764;6.896;2022-11-23T00:09:15;18.42;;;12.60;;
59302;SDS011;45074;52.764;6.896;2022-11-23T00:11:41;20.67;;;13.65;;
59302;SDS011;45074;52.764;6.896;2022-11-23T00:14:07;16.73;;;12.45;;
59302;SDS011;45074;52.764;6.896;2022-11-23T00:16:33;17.92;;;12.38;;
59302;SDS011;45074;52.764;6.896;2022-11-23T00:19:00;18.25;;;12.45;;
59302;SDS011;45074;52.764;6.896;2022-11-23T00:21:28;19.35;;;12.25;;
59302;SDS011;45074;52.764;6.896;2022-11-23T00:23:55;20.17;;;12.40;;
59302;SDS011;45074;52.764;6.896;2022-11-23T00:26:21;18.02;;;12.00;;
59302;SDS011;45074;52.764;6.896;2022-11-23T00:28:46;18.58;;;12.00;;
59302;SDS011;45074;52.764;6.896;2022-11-23T00:31:13;19.88;;;12.02;;
59302;SDS011;45074;52.764;6.896;2022-11-23T00:33:42;17.98;;;12.32;;
59302;SDS011;45074;52.764;6.896;2022-11-23T00:36:13;17.95;;;12.52;;
59302;SDS011;45074;52.764;6.896;2022-11-23T00:38:39;18.42;;;12.23;;
59302;SDS011;45074;52.764;6.896;2022-11-23T00:41:08;18.83;;;11.98;;
59302;SDS011;45074;52.764;6.896;2022-11-23T00:43:35;20.35;;;12.23;;
59302;SDS011;45074;52.764;6.896;2022-11-23T00:48:59;16.13;;;11.38;;
59302;SDS011;45074;52.764;6.896;2022-11-23T00:51:29;17.48;;;11.25;;
59302;SDS011;45074;52.764;6.896;2022-11-23T00:53:56;17.80;;;11.07;;
59302;SDS011;45074;52.764;6.896;2022-11-23T00:56:24;16.23;;;12.05;;
59302;SDS011;45074;52.764;6.896;2022-11-23T00:58:51;16.85;;;11.55;;
59302;SDS011;45074;52.764;6.896;2022-11-23T01:01:19;19.55;;;12.13;;
59302;SDS011;45074;52.764;6.896;2022-11-23T01:03:48;16.63;;;10.68;;
59302;SDS011;45074;52.764;6.896;2022-11-23T01:06:16;16.55;;;11.75;;
59302;SDS011;45074;52.764;6.896;2022-11-23T01:08:50;17.23;;;10.77;;
59302;SDS011;45074;52.764;6.896;2022-11-23T01:11:18;20.88;;;11.43;;
59302;SDS011;45074;52.764;6.896;2022-11-23T01:13:44;15.98;;;10.85;;
59302;SDS011;45074;52.764;6.896;2022-11-23T01:16:17;16.55;;;11.57;;
59302;SDS011;45074;52.764;6.896;2022-11-23T01:18:44;18.33;;;11.82;;
59302;SDS011;45074;52.764;6.896;2022-11-23T01:21:10;17.25;;;10.98;;
59302;SDS011;45074;52.764;6.896;2022-11-23T01:23:36;16.60;;;11.85;;
59302;SDS011;45074;52.764;6.896;2022-11-23T01:26:09;17.67;;;11.73;;
59302;SDS011;45074;52.764;6.896;2022-11-23T01:28:36;14.85;;;11.43;;
59302;SDS011;45074;52.764;6.896;2022-11-23T01:31:07;19.30;;;11.95;;
59302;SDS011;45074;52.764;6.896;2022-11-23T01:33:34;16.75;;;11.88;;
59302;SDS011;45074;52.764;6.896;2022-11-23T01:36:17;17.13;;;11.75;;
59302;SDS011;45074;52.764;6.896;2022-11-23T01:38:45;17.00;;;11.65;;
59302;SDS011;45074;52.764;6.896;2022-11-23T01:41:12;17.15;;;12.20;;
59302;SDS011;45074;52.764;6.896;2022-11-23T01:43:39;18.75;;;11.60;;
59302;SDS011;45074;52.764;6.896;2022-11-23T01:46:05;15.77;;;11.82;;
59302;SDS011;45074;52.764;6.896;2022-11-23T01:48:51;18.77;;;11.00;;
59302;SDS011;45074;52.764;6.896;2022-11-23T01:51:19;18.05;;;12.32;;
59302;SDS011;45074;52.764;6.896;2022-11-23T01:53:48;18.02;;;11.73;;
59302;SDS011;45074;52.764;6.896;2022-11-23T01:56:18;18.70;;;11.57;;
59302;SDS011;45074;52.764;6.896;2022-11-23T01:58:51;17.02;;;11.63;;
59302;SDS011;45074;52.764;6.896;2022-11-23T02:01:19;16.83;;;12.02;;
59302;SDS011;45074;52.764;6.896;2022-11-23T02:03:45;16.38;;;11.32;;
59302;SDS011;45074;52.764;6.896;2022-11-23T02:06:14;17.83;;;11.65;;
59302;SDS011;45074;52.764;6.896;2022-11-23T02:08:42;17.15;;;11.88;;
59302;SDS011;45074;52.764;6.896;2022-11-23T02:11:09;17.55;;;11.77;;
59302;SDS011;45074;52.764;6.896;2022-11-23T02:13:37;15.63;;;11.18;;
59302;SDS011;45074;52.764;6.896;2022-11-23T02:16:03;15.88;;;11.80;;
59302;SDS011;45074;52.764;6.896;2022-11-23T02:18:30;17.73;;;12.27;;
59302;SDS011;45074;52.764;6.896;2022-11-23T02:20:57;16.55;;;11.57;;
59302;SDS011;45074;52.764;6.896;2022-11-23T02:23:28;17.70;;;11.82;;
59302;SDS011;45074;52.764;6.896;2022-11-23T02:26:08;16.05;;;10.70;;
59302;SDS011;45074;52.764;6.896;2022-11-23T02:28:42;16.27;;;11.30;;
59302;SDS011;45074;52.764;6.896;2022-11-23T02:31:17;18.38;;;11.32;;
59302;SDS011;45074;52.764;6.896;2022-11-23T02:33:43;16.98;;;11.57;;
59302;SDS011;45074;52.764;6.896;2022-11-23T02:39:07;14.57;;;10.30;;
59302;SDS011;45074;52.764;6.896;2022-11-23T02:41:56;16.13;;;10.60;;
59302;SDS011;45074;52.764;6.896;2022-11-23T02:44:24;14.43;;;10.00;;
59302;SDS011;45074;52.764;6.896;2022-11-23T02:46:53;15.10;;;10.48;;
59302;SDS011;45074;52.764;6.896;2022-11-23T02:49:19;16.05;;;10.85;;
59302;SDS011;45074;52.764;6.896;2022-11-23T02:51:45;14.88;;;9.93;;
59302;SDS011;45074;52.764;6.896;2022-11-23T02:54:11;15.07;;;9.38;;
59302;SDS011;45074;52.764;6.896;2022-11-23T02:56:37;15.20;;;9.98;;
59302;SDS011;45074;52.764;6.896;2022-11-23T02:59:03;14.98;;;9.68;;
59302;SDS011;45074;52.764;6.896;2022-11-23T03:01:29;15.60;;;10.07;;
59302;SDS011;45074;52.764;6.896;2022-11-23T03:03:55;16.27;;;9.18;;
59302;SDS011;45074;52.764;6.896;2022-11-23T03:06:21;14.15;;;9.10;;
59302;SDS011;45074;52.764;6.896;2022-11-23T03:08:47;14.65;;;9.95;;
59302;SDS011;45074;52.764;6.896;2022-11-23T03:11:13;14.38;;;9.27;;
59302;SDS011;45074;52.764;6.896;2022-11-23T03:13:39;14.27;;;9.20;;
59302;SDS011;45074;52.764;6.896;2022-11-23T03:16:05;14.75;;;9.25;;
59302;SDS011;45074;52.764;6.896;2022-11-23T03:18:31;15.30;;;9.48;;
59302;SDS011;45074;52.764;6.896;2022-11-23T03:21:01;14.65;;;9.45;;
59302;SDS011;45074;52.764;6.896;2022-11-23T03:23:27;15.88;;;9.68;;
59302;SDS011;45074;52.764;6.896;2022-11-23T03:25:54;16.33;;;9.43;;
59302;SDS011;45074;52.764;6.896;2022-11-23T03:28:22;15.52;;;9.55;;
59302;SDS011;45074;52.764;6.896;2022-11-23T03:30:48;15.05;;;9.27;;
59302;SDS011;45074;52.764;6.896;2022-11-23T03:33:14;13.60;;;9.38;;
59302;SDS011;45074;52.764;6.896;2022-11-23T03:35:40;17.80;;;9.52;;
59302;SDS011;45074;52.764;6.896;2022-11-23T03:38:06;15.82;;;9.35;;
59302;SDS011;45074;52.764;6.896;2022-11-23T03:40:32;17.85;;;9.95;;
59302;SDS011;45074;52.764;6.896;2022-11-23T03:42:58;16.33;;;9.75;;
59302;SDS011;45074;52.764;6.896;2022-11-23T03:45:24;16.35;;;9.90;;
59302;SDS011;45074;52.764;6.896;2022-11-23T03:47:50;18.35;;;10.18;;
59302;SDS011;45074;52.764;6.896;2022-11-23T03:50:16;17.77;;;9.88;;
59302;SDS011;45074;52.764;6.896;2022-11-23T03:52:42;19.45;;;10.50;;
59302;SDS011;45074;52.764;6.896;2022-11-23T03:55:08;19.00;;;10.13;;
59302;SDS011;45074;52.764;6.896;2022-11-23T03:57:35;17.65;;;10.52;;
59302;SDS011;45074;52.764;6.896;2022-11-23T04:00:01;17.25;;;10.48;;
59302;SDS011;45074;52.764;6.896;2022-11-23T04:02:27;19.45;;;10.98;;
59302;SDS011;45074;52.764;6.896;2022-11-23T04:04:53;17.55;;;10.82;;
59302;SDS011;45074;52.764;6.896;2022-11-23T04:07:19;21.40;;;10.95;;
59302;SDS011;45074;52.764;6.896;2022-11-23T04:09:45;20.10;;;10.95;;
59302;SDS011;45074;52.764;6.896;2022-11-23T04:12:11;19.48;;;11.38;;
59302;SDS011;45074;52.764;6.896;2022-11-23T04:14:37;17.05;;;10.75;;
59302;SDS011;45074;52.764;6.896;2022-11-23T04:17:03;18.30;;;10.65;;
59302;SDS011;45074;52.764;6.896;2022-11-23T04:19:29;24.15;;;11.85;;
59302;SDS011;45074;52.764;6.896;2022-11-23T04:21:55;19.33;;;11.18;;
59302;SDS011;45074;52.764;6.896;2022-11-23T04:24:21;18.52;;;9.82;;
59302;SDS011;45074;52.764;6.896;2022-11-23T04:26:47;18.08;;;10.88;;
59302;SDS011;45074;52.764;6.896;2022-11-23T04:29:13;18.58;;;11.40;;
59302;SDS011;45074;52.764;6.896;2022-11-23T04:31:39;18.17;;;10.45;;
59302;SDS011;45074;52.764;6.896;2022-11-23T04:34:05;22.42;;;11.07;;
59302;SDS011;45074;52.764;6.896;2022-11-23T04:36:31;20.77;;;10.98;;
59302;SDS011;45074;52.764;6.896;2022-11-23T04:38:57;17.95;;;10.65;;
59302;SDS011;45074;52.764;6.896;2022-11-23T04:41:23;20.42;;;10.95;;
59302;SDS011;45074;52.764;6.896;2022-11-23T04:43:49;20.70;;;11.27;;
59302;SDS011;45074;52.764;6.896;2022-11-23T04:46:18;22.13;;;11.38;;
59302;SDS011;45074;52.764;6.896;2022-11-23T04:48:44;20.67;;;10.50;;
59302;SDS011;45074;52.764;6.896;2022-11-23T04:51:10;19.08;;;10.40;;
59302;SDS011;45074;52.764;6.896;2022-11-23T04:53:36;18.13;;;10.60;;
59302;SDS011;45074;52.764;6.896;2022-11-23T04:56:02;17.63;;;9.98;;
59302;SDS011;45074;52.764;6.896;2022-11-23T04:58:28;22.67;;;10.57;;
59302;SDS011;45074;52.764;6.896;2022-11-23T05:00:56;16.13;;;9.90;;
59302;SDS011;45074;52.764;6.896;2022-11-23T05:03:22;22.95;;;10.65;;
59302;SDS011;45074;52.764;6.896;2022-11-23T05:05:48;18.80;;;10.57;;
59302;SDS011;45074;52.764;6.896;2022-11-23T05:08:14;20.70;;;9.93;;
59302;SDS011;45074;52.764;6.896;2022-11-23T05:10:40;21.25;;;10.88;;
59302;SDS011;45074;52.764;6.896;2022-11-23T05:13:06;17.55;;;9.98;;
59302;SDS011;45074;52.764;6.896;2022-11-23T05:15:32;22.85;;;10.45;;
59302;SDS011;45074;52.764;6.896;2022-11-23T05:18:02;19.98;;;10.07;;
59302;SDS011;45074;52.764;6.896;2022-11-23T05:20:30;19.77;;;9.77;;
59302;SDS011;45074;52.764;6.896;2022-11-23T05:22:56;19.55;;;9.65;;
59302;SDS011;45074;52.764;6.896;2022-11-23T05:25:22;16.15;;;8.88;;
59302;SDS011;45074;52.764;6.896;2022-11-23T05:27:48;18.95;;;9.40;;
59302;SDS011;45074;52.764;6.896;2022-11-23T05:30:14;20.85;;;8.93;;
59302;SDS011;45074;52.764;6.896;2022-11-23T05:32:40;17.35;;;8.55;;
59302;SDS011;45074;52.764;6.896;2022-11-23T05:35:06;17.10;;;8.38;;
59302;SDS011;45074;52.764;6.896;2022-11-23T05:37:32;19.10;;;8.38;;
59302;SDS011;45074;52.764;6.896;2022-11-23T05:39:59;15.00;;;8.23;;
59302;SDS011;45074;52.764;6.896;2022-11-23T05:42:25;16.73;;;7.95;;
59302;SDS011;45074;52.764;6.896;2022-11-23T05:44:51;14.98;;;7.13;;
59302;SDS011;45074;52.764;6.896;2022-11-23T05:47:17;13.32;;;7.32;;
59302;SDS011;45074;52.764;6.896;2022-11-23T05:49:43;12.77;;;6.95;;
59302;SDS011;45074;52.764;6.896;2022-11-23T05:52:09;17.88;;;7.38;;
59302;SDS011;45074;52.764;6.896;2022-11-23T05:54:35;13.52;;;6.68;;
59302;SDS011;45074;52.764;6.896;2022-11-23T05:57:01;13.82;;;6.55;;
59302;SDS011;45074;52.764;6.896;2022-11-23T05:59:27;12.63;;;6.82;;
59302;SDS011;45074;52.764;6.896;2022-11-23T06:01:53;13.80;;;6.57;;
59302;SDS011;45074;52.764;6.896;2022-11-23T06:04:19;14.85;;;6.03;;
59302;SDS011;45074;52.764;6.896;2022-11-23T06:06:45;13.40;;;6.22;;
59302;SDS011;45074;52.764;6.896;2022-11-23T06:09:11;13.68;;;6.03;;
59302;SDS011;45074;52.764;6.896;2022-11-23T06:11:37;14.23;;;6.22;;
59302;SDS011;45074;52.764;6.896;2022-11-23T06:14:03;14.82;;;6.38;;
59302;SDS011;45074;52.764;6.896;2022-11-23T06:16:29;16.20;;;6.68;;
59302;SDS011;45074;52.764;6.896;2022-11-23T06:18:55;15.57;;;6.53;;
59302;SDS011;45074;52.764;6.896;2022-11-23T06:21:21;13.70;;;6.25;;
59302;SDS011;45074;52.764;6.896;2022-11-23T06:23:47;14.02;;;6.28;;
59302;SDS011;45074;52.764;6.896;2022-11-23T06:26:14;12.30;;;6.10;;
59302;SDS011;45074;52.764;6.896;2022-11-23T06:28:40;14.93;;;5.82;;
59302;SDS011;45074;52.764;6.896;2022-11-23T06:31:06;12.00;;;5.30;;
59302;SDS011;45074;52.764;6.896;2022-11-23T06:33:32;11.68;;;5.10;;
59302;SDS011;45074;52.764;6.896;2022-11-23T06:35:59;10.82;;;5.30;;
59302;SDS011;45074;52.764;6.896;2022-11-23T06:38:26;14.73;;;5.85;;
59302;SDS011;45074;52.764;6.896;2022-11-23T06:40:52;9.82;;;4.95;;
59302;SDS011;45074;52.764;6.896;2022-11-23T06:43:18;12.77;;;5.20;;
59302;SDS011;45074;52.764;6.896;2022-11-23T06:45:44;13.73;;;5.65;;
59302;SDS011;45074;52.764;6.896;2022-11-23T06:48:10;12.63;;;5.38;;
59302;SDS011;45074;52.764;6.896;2022-11-23T06:50:36;14.98;;;6.00;;
59302;SDS011;45074;52.764;6.896;2022-11-23T06:53:02;13.80;;;6.13;;
59302;SDS011;45074;52.764;6.896;2022-11-23T06:55:28;13.25;;;5.65;;
59302;SDS011;45074;52.764;6.896;2022-11-23T06:57:55;14.32;;;5.82;;
59302;SDS011;45074;52.764;6.896;2022-11-23T07:00:21;13.57;;;5.82;;
59302;SDS011;45074;52.764;6.896;2022-11-23T07:02:50;14.80;;;6.28;;
59302;SDS011;45074;52.764;6.896;2022-11-23T07:05:17;12.38;;;6.10;;
59302;SDS011;45074;52.764;6.896;2022-11-23T07:07:43;16.10;;;6.30;;
59302;SDS011;45074;52.764;6.896;2022-11-23T07:10:09;15.48;;;6.72;;
59302;SDS011;45074;52.764;6.896;2022-11-23T07:12:35;14.82;;;6.63;;
59302;SDS011;45074;52.764;6.896;2022-11-23T07:15:02;16.02;;;6.60;;
59302;SDS011;45074;52.764;6.896;2022-11-23T07:17:28;15.50;;;5.88;;
59302;SDS011;45074;52.764;6.896;2022-11-23T07:19:53;11.18;;;5.75;;
59302;SDS011;45074;52.764;6.896;2022-11-23T07:22:19;15.63;;;6.20;;
59302;SDS011;45074;52.764;6.896;2022-11-23T07:24:45;15.60;;;6.45;;
59302;SDS011;45074;52.764;6.896;2022-11-23T07:27:11;13.95;;;6.63;;
59302;SDS011;45074;52.764;6.896;2022-11-23T07:29:37;15.85;;;6.45;;
59302;SDS011;45074;52.764;6.896;2022-11-23T07:32:04;16.00;;;5.90;;
59302;SDS011;45074;52.764;6.896;2022-11-23T07:34:30;14.05;;;6.53;;
59302;SDS011;45074;52.764;6.896;2022-11-23T07:36:56;15.75;;;6.10;;
59302;SDS011;45074;52.764;6.896;2022-11-23T07:39:22;14.13;;;6.38;;
59302;SDS011;45074;52.764;6.896;2022-11-23T07:41:48;14.18;;;5.93;;
59302;SDS011;45074;52.764;6.896;2022-11-23T07:44:15;12.68;;;6.47;;
59302;SDS011;45074;52.764;6.896;2022-11-23T07:46:41;13.65;;;7.00;;
59302;SDS011;45074;52.764;6.896;2022-11-23T07:49:07;15.68;;;6.82;;
59302;SDS011;45074;52.764;6.896;2022-11-23T07:51:33;14.52;;;6.90;;
59302;SDS011;45074;52.764;6.896;2022-11-23T07:53:59;15.88;;;8.38;;
59302;SDS011;45074;52.764;6.896;2022-11-23T07:56:25;16.35;;;7.00;;
59302;SDS011;45074;52.764;6.896;2022-11-23T07:58:51;20.88;;;7.78;;
59302;SDS011;45074;52.764;6.896;2022-11-23T08:01:17;22.25;;;8.45;;
59302;SDS011;45074;52.764;6.896;2022-11-23T08:03:46;15.75;;;7.10;;
59302;SDS011;45074;52.764;6.896;2022-11-23T08:06:13;27.45;;;9.73;;
59302;SDS011;45074;52.764;6.896;2022-11-23T08:08:39;20.30;;;7.50;;
59302;SDS011;45074;52.764;6.896;2022-11-23T08:11:06;18.50;;;7.38;;
59302;SDS011;45074;52.764;6.896;2022-11-23T08:13:33;18.73;;;8.18;;
59302;SDS011;45074;52.764;6.896;2022-11-23T08:16:01;22.55;;;9.73;;
59302;SDS011;45074;52.764;6.896;2022-11-23T08:18:27;23.20;;;8.70;;
59302;SDS011;45074;52.764;6.896;2022-11-23T08:20:53;17.63;;;7.80;;
59302;SDS011;45074;52.764;6.896;2022-11-23T08:23:19;18.17;;;7.40;;
59302;SDS011;45074;52.764;6.896;2022-11-23T08:25:45;15.48;;;6.70;;
59302;SDS011;45074;52.764;6.896;2022-11-23T08:28:12;19.33;;;7.07;;
59302;SDS011;45074;52.764;6.896;2022-11-23T08:30:38;18.60;;;7.25;;
59302;SDS011;45074;52.764;6.896;2022-11-23T08:33:05;16.98;;;6.88;;
59302;SDS011;45074;52.764;6.896;2022-11-23T08:35:35;20.30;;;8.15;;
59302;SDS011;45074;52.764;6.896;2022-11-23T08:38:01;20.63;;;7.60;;
59302;SDS011;45074;52.764;6.896;2022-11-23T08:40:28;18.05;;;6.40;;
59302;SDS011;45074;52.764;6.896;2022-11-23T08:42:54;18.13;;;5.65;;
59302;SDS011;45074;52.764;6.896;2022-11-23T08:45:20;18.60;;;7.63;;
59302;SDS011;45074;52.764;6.896;2022-11-23T08:47:46;21.75;;;9.38;;
59302;SDS011;45074;52.764;6.896;2022-11-23T08:50:12;16.98;;;5.80;;
59302;SDS011;45074;52.764;6.896;2022-11-23T08:52:38;15.43;;;6.30;;
59302;SDS011;45074;52.764;6.896;2022-11-23T08:55:05;13.00;;;5.68;;
59302;SDS011;45074;52.764;6.896;2022-11-23T08:57:31;15.50;;;5.65;;
59302;SDS011;45074;52.764;6.896;2022-11-23T08:59:57;15.70;;;5.90;;
59302;SDS011;45074;52.764;6.896;2022-11-23T09:02:23;12.57;;;6.00;;
59302;SDS011;45074;52.764;6.896;2022-11-23T09:04:49;12.43;;;4.97;;
59302;SDS011;45074;52.764;6.896;2022-11-23T09:07:15;14.10;;;6.35;;
59302;SDS011;45074;52.764;6.896;2022-11-23T09:09:41;14.68;;;6.45;;
59302;SDS011;45074;52.764;6.896;2022-11-23T09:12:07;16.08;;;5.32;;
59302;SDS011;45074;52.764;6.896;2022-11-23T09:14:33;13.32;;;5.20;;
59302;SDS011;45074;52.764;6.896;2022-11-23T09:16:59;13.55;;;4.93;;
59302;SDS011;45074;52.764;6.896;2022-11-23T09:19:26;12.20;;;4.78;;
59302;SDS011;45074;52.764;6.896;2022-11-23T09:21:52;12.63;;;4.20;;
59302;SDS011;45074;52.764;6.896;2022-11-23T09:24:18;16.92;;;6.25;;
59302;SDS011;45074;52.764;6.896;2022-11-23T09:26:44;18.98;;;6.88;;
59302;SDS011;45074;52.764;6.896;2022-11-23T09:29:10;18.20;;;6.38;;
59302;SDS011;45074;52.764;6.896;2022-11-23T09:31:36;13.93;;;5.60;;
59302;SDS011;45074;52.764;6.896;2022-11-23T09:34:02;14.95;;;4.32;;
59302;SDS011;45074;52.764;6.896;2022-11-23T09:36:29;13.70;;;4.72;;
59302;SDS011;45074;52.764;6.896;2022-11-23T09:38:55;15.65;;;4.30;;
59302;SDS011;45074;52.764;6.896;2022-11-23T09:41:34;14.45;;;4.50;;
59302;SDS011;45074;52.764;6.896;2022-11-23T09:52:31;13.32;;;4.32;;
59302;SDS011;45074;52.764;6.896;2022-11-23T09:55:20;15.82;;;5.20;;
59302;SDS011;45074;52.764;6.896;2022-11-23T09:58:15;15.25;;;4.57;;
59302;SDS011;45074;52.764;6.896;2022-11-23T10:01:02;13.73;;;5.38;;
59302;SDS011;45074;52.764;6.896;2022-11-23T10:03:35;14.95;;;4.57;;
59302;SDS011;45074;52.764;6.896;2022-11-23T10:11:23;13.30;;;4.22;;
59302;SDS011;45074;52.764;6.896;2022-11-23T10:14:05;10.63;;;3.53;;
59302;SDS011;45074;52.764;6.896;2022-11-23T10:16:55;12.68;;;3.65;;
59302;SDS011;45074;52.764;6.896;2022-11-23T10:19:48;15.10;;;4.03;;
59302;SDS011;45074;52.764;6.896;2022-11-23T10:22:34;15.23;;;3.58;;
59302;SDS011;45074;52.764;6.896;2022-11-23T10:25:23;13.40;;;3.75;;
59302;SDS011;45074;52.764;6.896;2022-11-23T10:27:51;12.05;;;3.70;;
59302;SDS011;45074;52.764;6.896;2022-11-23T10:30:20;14.50;;;3.55;;
59302;SDS011;45074;52.764;6.896;2022-11-23T10:33:35;13.23;;;3.33;;
59302;SDS011;45074;52.764;6.896;2022-11-23T10:35:50;17.02;;;6.53;;
59302;SDS011;45074;52.764;6.896;2022-11-23T10:38:17;13.40;;;3.03;;
59302;SDS011;45074;52.764;6.896;2022-11-23T10:43:31;11.85;;;3.65;;
59302;SDS011;45074;52.764;6.896;2022-11-23T10:46:21;11.27;;;3.00;;
59302;SDS011;45074;52.764;6.896;2022-11-23T10:48:48;13.68;;;3.97;;
59302;SDS011;45074;52.764;6.896;2022-11-23T10:53:41;20.67;;;6.68;;
59302;SDS011;45074;52.764;6.896;2022-11-23T10:56:11;15.32;;;4.82;;
59302;SDS011;45074;52.764;6.896;2022-11-23T10:58:41;17.15;;;3.78;;
59302;SDS011;45074;52.764;6.896;2022-11-23T11:01:19;12.00;;;4.00;;
59302;SDS011;45074;52.764;6.896;2022-11-23T11:03:48;13.35;;;3.78;;
59302;SDS011;45074;52.764;6.896;2022-11-23T11:06:24;12.10;;;2.92;;
59302;SDS011;45074;52.764;6.896;2022-11-23T11:08:54;12.00;;;2.63;;
59302;SDS011;45074;52.764;6.896;2022-11-23T11:14:05;9.27;;;2.83;;
59302;SDS011;45074;52.764;6.896;2022-11-23T11:16:45;10.73;;;2.80;;
59302;SDS011;45074;52.764;6.896;2022-11-23T11:19:20;13.18;;;2.70;;
59302;SDS011;45074;52.764;6.896;2022-11-23T11:21:51;9.20;;;2.47;;
59302;SDS011;45074;52.764;6.896;2022-11-23T11:24:18;11.45;;;2.55;;
59302;SDS011;45074;52.764;6.896;2022-11-23T11:26:51;10.77;;;2.50;;
59302;SDS011;45074;52.764;6.896;2022-11-23T11:29:28;15.82;;;2.80;;
59302;SDS011;45074;52.764;6.896;2022-11-23T11:34:29;12.40;;;2.70;;
59302;SDS011;45074;52.764;6.896;2022-11-23T11:37:10;12.95;;;2.50;;
59302;SDS011;45074;52.764;6.896;2022-11-23T11:39:53;9.02;;;2.50;;
59302;SDS011;45074;52.764;6.896;2022-11-23T11:42:26;9.10;;;2.40;;
59302;SDS011;45074;52.764;6.896;2022-11-23T11:45:02;13.23;;;2.70;;
59302;SDS011;45074;52.764;6.896;2022-11-23T11:47:33;11.53;;;2.63;;
59302;SDS011;45074;52.764;6.896;2022-11-23T11:50:25;14.18;;;3.42;;
59302;SDS011;45074;52.764;6.896;2022-11-23T11:53:06;10.95;;;3.03;;
59302;SDS011;45074;52.764;6.896;2022-11-23T11:58:15;7.68;;;2.55;;
59302;SDS011;45074;52.764;6.896;2022-11-23T12:00:41;14.77;;;3.70;;
59302;SDS011;45074;52.764;6.896;2022-11-23T12:06:25;8.82;;;2.47;;
59302;SDS011;45074;52.764;6.896;2022-11-23T12:09:05;8.05;;;2.35;;
59302;SDS011;45074;52.764;6.896;2022-11-23T12:11:43;12.05;;;3.10;;
59302;SDS011;45074;52.764;6.896;2022-11-23T12:14:11;11.27;;;2.72;;
59302;SDS011;45074;52.764;6.896;2022-11-23T12:19:48;12.00;;;2.83;;
59302;SDS011;45074;52.764;6.896;2022-11-23T12:35:47;10.60;;;2.75;;
59302;SDS011;45074;52.764;6.896;2022-11-23T12:43:30;8.40;;;2.20;;
59302;SDS011;45074;52.764;6.896;2022-11-23T12:46:18;9.30;;;1.85;;
59302;SDS011;45074;52.764;6.896;2022-11-23T12:49:49;9.73;;;2.60;;
59302;SDS011;45074;52.764;6.896;2022-11-23T12:55:25;7.78;;;2.03;;
59302;SDS011;45074;52.764;6.896;2022-11-23T12:58:03;13.10;;;2.17;;
59302;SDS011;45074;52.764;6.896;2022-11-23T13:00:47;9.57;;;2.72;;
59302;SDS011;45074;52.764;6.896;2022-11-23T13:21:42;8.88;;;2.13;;
59302;SDS011;45074;52.764;6.896;2022-11-23T13:24:26;7.80;;;1.67;;
59302;SDS011;45074;52.764;6.896;2022-11-23T13:40:22;9.13;;;2.78;;
59302;SDS011;45074;52.764;6.896;2022-11-23T13:42:53;8.18;;;1.98;;
59302;SDS011;45074;52.764;6.896;2022-11-23T13:45:33;8.57;;;2.38;;
59302;SDS011;45074;52.764;6.896;2022-11-23T13:48:10;9.93;;;2.20;;
59302;SDS011;45074;52.764;6.896;2022-11-23T13:55:49;8.05;;;2.13;;
59302;SDS011;45074;52.764;6.896;2022-11-23T13:58:38;7.22;;;1.88;;
59302;SDS011;45074;52.764;6.896;2022-11-23T14:01:03;8.85;;;2.50;;
59302;SDS011;45074;52.764;6.896;2022-11-23T14:11:38;9.25;;;2.83;;
59302;SDS011;45074;52.764;6.896;2022-11-23T14:14:20;9.35;;;2.25;;
59302;SDS011;45074;52.764;6.896;2022-11-23T14:19:57;7.43;;;1.92;;
59302;SDS011;45074;52.764;6.896;2022-11-23T14:30:45;8.00;;;1.90;;
59302;SDS011;45074;52.764;6.896;2022-11-23T14:36:14;9.18;;;2.10;;
59302;SDS011;45074;52.764;6.896;2022-11-23T14:41:45;6.53;;;2.00;;
59302;SDS011;45074;52.764;6.896;2022-11-23T14:44:17;6.18;;;1.50;;
59302;SDS011;45074;52.764;6.896;2022-11-23T14:47:01;7.63;;;2.00;;
59302;SDS011;45074;52.764;6.896;2022-11-23T14:49:28;6.57;;;1.80;;
59302;SDS011;45074;52.764;6.896;2022-11-23T14:51:54;6.18;;;1.83;;
59302;SDS011;45074;52.764;6.896;2022-11-23T14:54:20;8.68;;;1.77;;
59302;SDS011;45074;52.764;6.896;2022-11-23T14:56:47;7.70;;;1.73;;
59302;SDS011;45074;52.764;6.896;2022-11-23T15:01:47;7.40;;;2.05;;
59302;SDS011;45074;52.764;6.896;2022-11-23T15:04:25;8.98;;;2.20;;
59302;SDS011;45074;52.764;6.896;2022-11-23T15:07:03;10.30;;;2.90;;
59302;SDS011;45074;52.764;6.896;2022-11-23T15:14:42;9.07;;;3.20;;
59302;SDS011;45074;52.764;6.896;2022-11-23T15:17:12;12.48;;;3.70;;
59302;SDS011;45074;52.764;6.896;2022-11-23T15:19:39;9.27;;;2.67;;
59302;SDS011;45074;52.764;6.896;2022-11-23T15:22:13;11.75;;;3.75;;
59302;SDS011;45074;52.764;6.896;2022-11-23T15:24:42;8.07;;;2.85;;
59302;SDS011;45074;52.764;6.896;2022-11-23T15:27:08;11.35;;;2.67;;
59302;SDS011;45074;52.764;6.896;2022-11-23T15:29:50;13.35;;;3.90;;
59302;SDS011;45074;52.764;6.896;2022-11-23T15:32:22;12.25;;;4.68;;
59302;SDS011;45074;52.764;6.896;2022-11-23T15:34:56;11.70;;;4.07;;
59302;SDS011;45074;52.764;6.896;2022-11-23T15:37:24;13.10;;;3.72;;
59302;SDS011;45074;52.764;6.896;2022-11-23T15:39:51;13.80;;;4.20;;
59302;SDS011;45074;52.764;6.896;2022-11-23T15:42:19;10.38;;;3.15;;
59302;SDS011;45074;52.764;6.896;2022-11-23T15:44:48;8.07;;;2.25;;
59302;SDS011;45074;52.764;6.896;2022-11-23T15:47:47;8.75;;;3.08;;
59302;SDS011;45074;52.764;6.896;2022-11-23T15:50:07;8.38;;;2.75;;
59302;SDS011;45074;52.764;6.896;2022-11-23T15:52:34;8.73;;;2.58;;
59302;SDS011;45074;52.764;6.896;2022-11-23T15:55:04;8.50;;;2.58;;
59302;SDS011;45074;52.764;6.896;2022-11-23T15:57:32;5.97;;;2.20;;
59302;SDS011;45074;52.764;6.896;2022-11-23T15:59:59;7.93;;;2.38;;
59302;SDS011;45074;52.764;6.896;2022-11-23T16:02:28;8.80;;;3.80;;
59302;SDS011;45074;52.764;6.896;2022-11-23T16:05:12;10.10;;;4.03;;
59302;SDS011;45074;52.764;6.896;2022-11-23T16:07:53;8.02;;;2.53;;
59302;SDS011;45074;52.764;6.896;2022-11-23T16:12:48;9.13;;;3.25;;
59302;SDS011;45074;52.764;6.896;2022-11-23T16:18:16;6.80;;;2.75;;
59302;SDS011;45074;52.764;6.896;2022-11-23T16:20:45;6.55;;;2.60;;
59302;SDS011;45074;52.764;6.896;2022-11-23T16:23:24;12.52;;;4.72;;
59302;SDS011;45074;52.764;6.896;2022-11-23T16:26:07;9.13;;;3.80;;
59302;SDS011;45074;52.764;6.896;2022-11-23T16:28:33;9.65;;;3.38;;
59302;SDS011;45074;52.764;6.896;2022-11-23T16:31:02;11.02;;;2.78;;
59302;SDS011;45074;52.764;6.896;2022-11-23T16:33:28;6.55;;;2.30;;
59302;SDS011;45074;52.764;6.896;2022-11-23T16:35:54;6.35;;;2.33;;
59302;SDS011;45074;52.764;6.896;2022-11-23T16:38:21;8.98;;;2.60;;
59302;SDS011;45074;52.764;6.896;2022-11-23T16:40:47;8.30;;;3.00;;
59302;SDS011;45074;52.764;6.896;2022-11-23T16:43:14;9.35;;;2.55;;
59302;SDS011;45074;52.764;6.896;2022-11-23T16:45:44;9.68;;;2.85;;
59302;SDS011;45074;52.764;6.896;2022-11-23T16:48:34;8.13;;;2.47;;
59302;SDS011;45074;52.764;6.896;2022-11-23T16:51:02;8.55;;;2.83;;
59302;SDS011;45074;52.764;6.896;2022-11-23T16:53:28;7.70;;;2.70;;
59302;SDS011;45074;52.764;6.896;2022-11-23T16:55:55;9.40;;;2.65;;
59302;SDS011;45074;52.764;6.896;2022-11-23T16:58:22;8.88;;;2.85;;
59302;SDS011;45074;52.764;6.896;2022-11-23T17:00:48;9.38;;;3.63;;
59302;SDS011;45074;52.764;6.896;2022-11-23T17:03:15;8.98;;;4.07;;